sensor_id;sensor_type;location;lat;lon;timestamp;temperature;humidity
17170;DHT22;8700;48.222;16.342;2022-11-15T00:01:00;8.10;99.90
17170;DHT22;8700;48.222;16.342;2022-11-15T00:04:21;8.10;99.90
17170;DHT22;8700;48.222;16.342;2022-11-15T00:07:43;8.10;99.90
17170;DHT22;8700;48.222;16.342;2022-11-15T00:11:04;8.10;99.90
17170;DHT22;8700;48.222;16.342;2022-11-15T00:14:27;8.00;99.90
17170;DHT22;8700;48.222;16.342;2022-11-15T00:17:48;8.00;99.90
17170;DHT22;8700;48.222;16.342;2022-11-15T00:21:11;8.10;99.90
17170;DHT22;8700;48.222;16.342;2022-11-15T00:24:33;7.90;99.90
17170;DHT22;8700;48.222;16.342;2022-11-15T00:27:55;7.70;99.90
17170;DHT22;8700;48.222;16.342;2022-11-15T00:31:17;7.80;99.90
17170;DHT22;8700;48.222;16.342;2022-11-15T00:34:39;7.70;99.90
17170;DHT22;8700;48.222;16.342;2022-11-15T00:38:00;7.90;99.90
17170;DHT22;8700;48.222;16.342;2022-11-15T00:41:22;8.10;99.90
17170;DHT22;8700;48.222;16.342;2022-11-15T00:44:43;8.10;99.90
17170;DHT22;8700;48.222;16.342;2022-11-15T00:48:06;8.20;99.90
17170;DHT22;8700;48.222;16.342;2022-11-15T00:51:27;8.20;99.90
17170;DHT22;8700;48.222;16.342;2022-11-15T00:54:49;8.10;99.90
17170;DHT22;8700;48.222;16.342;2022-11-15T00:58:10;8.10;99.90
17170;DHT22;8700;48.222;16.342;2022-11-15T01:01:32;8.10;99.90
17170;DHT22;8700;48.222;16.342;2022-11-15T01:04:54;8.00;99.90
17170;DHT22;8700;48.222;16.342;2022-11-15T01:08:16;8.00;99.90
17170;DHT22;8700;48.222;16.342;2022-11-15T01:11:37;8.10;99.90
17170;DHT22;8700;48.222;16.342;2022-11-15T01:14:58;7.90;99.90
17170;DHT22;8700;48.222;16.342;2022-11-15T01:18:19;7.80;99.90
17170;DHT22;8700;48.222;16.342;2022-11-15T01:21:42;7.80;99.90
17170;DHT22;8700;48.222;16.342;2022-11-15T01:25:03;8.00;99.90
17170;DHT22;8700;48.222;16.342;2022-11-15T01:28:25;7.90;99.90
17170;DHT22;8700;48.222;16.342;2022-11-15T01:31:46;7.90;99.90
17170;DHT22;8700;48.222;16.342;2022-11-15T01:35:08;7.90;99.90
17170;DHT22;8700;48.222;16.342;2022-11-15T01:38:30;8.10;99.90
17170;DHT22;8700;48.222;16.342;2022-11-15T01:41:52;8.20;99.90
17170;DHT22;8700;48.222;16.342;2022-11-15T01:45:14;8.10;99.90
17170;DHT22;8700;48.222;16.342;2022-11-15T01:48:36;8.10;99.90
17170;DHT22;8700;48.222;16.342;2022-11-15T01:51:57;8.00;99.90
17170;DHT22;8700;48.222;16.342;2022-11-15T01:55:24;8.10;99.90
17170;DHT22;8700;48.222;16.342;2022-11-15T01:58:45;8.20;99.90
17170;DHT22;8700;48.222;16.342;2022-11-15T02:02:07;8.30;99.90
17170;DHT22;8700;48.222;16.342;2022-11-15T02:05:30;8.30;99.90
17170;DHT22;8700;48.222;16.342;2022-11-15T02:08:53;8.20;99.90
17170;DHT22;8700;48.222;16.342;2022-11-15T02:12:19;8.10;99.90
17170;DHT22;8700;48.222;16.342;2022-11-15T02:15:51;8.00;99.90
17170;DHT22;8700;48.222;16.342;2022-11-15T02:19:27;8.20;99.90
17170;DHT22;8700;48.222;16.342;2022-11-15T02:23:01;8.00;99.90
17170;DHT22;8700;48.222;16.342;2022-11-15T02:30:27;8.10;99.90
17170;DHT22;8700;48.222;16.342;2022-11-15T02:33:54;8.20;99.90
17170;DHT22;8700;48.222;16.342;2022-11-15T02:37:30;8.20;99.90
17170;DHT22;8700;48.222;16.342;2022-11-15T02:40:54;8.00;99.90
17170;DHT22;8700;48.222;16.342;2022-11-15T02:44:23;8.00;99.90
17170;DHT22;8700;48.222;16.342;2022-11-15T02:47:49;8.10;99.90
17170;DHT22;8700;48.222;16.342;2022-11-15T02:51:13;8.20;99.90
17170;DHT22;8700;48.222;16.342;2022-11-15T02:54:35;8.20;99.90
17170;DHT22;8700;48.222;16.342;2022-11-15T02:58:09;8.30;99.90
17170;DHT22;8700;48.222;16.342;2022-11-15T03:01:39;8.40;99.90
17170;DHT22;8700;48.222;16.342;2022-11-15T03:05:15;8.40;99.90
17170;DHT22;8700;48.222;16.342;2022-11-15T03:08:46;8.40;99.90
17170;DHT22;8700;48.222;16.342;2022-11-15T03:12:18;8.40;99.90
17170;DHT22;8700;48.222;16.342;2022-11-15T03:15:46;8.40;99.90
17170;DHT22;8700;48.222;16.342;2022-11-15T03:19:14;8.60;99.90
17170;DHT22;8700;48.222;16.342;2022-11-15T03:22:42;8.50;99.90
17170;DHT22;8700;48.222;16.342;2022-11-15T03:26:07;8.50;99.90
17170;DHT22;8700;48.222;16.342;2022-11-15T03:29:33;8.80;99.90
17170;DHT22;8700;48.222;16.342;2022-11-15T03:32:58;8.80;99.90
17170;DHT22;8700;48.222;16.342;2022-11-15T03:36:20;8.70;99.90
17170;DHT22;8700;48.222;16.342;2022-11-15T03:39:44;8.60;99.90
17170;DHT22;8700;48.222;16.342;2022-11-15T03:43:10;8.50;99.90
17170;DHT22;8700;48.222;16.342;2022-11-15T03:46:40;8.50;99.90
17170;DHT22;8700;48.222;16.342;2022-11-15T03:50:07;8.70;99.90
17170;DHT22;8700;48.222;16.342;2022-11-15T03:53:30;8.70;99.90
17170;DHT22;8700;48.222;16.342;2022-11-15T03:56:52;8.60;99.90
17170;DHT22;8700;48.222;16.342;2022-11-15T04:00:15;8.60;99.90
17170;DHT22;8700;48.222;16.342;2022-11-15T04:03:36;8.60;99.90
17170;DHT22;8700;48.222;16.342;2022-11-15T04:06:57;8.50;99.90
17170;DHT22;8700;48.222;16.342;2022-11-15T04:10:18;8.50;99.90
17170;DHT22;8700;48.222;16.342;2022-11-15T04:13:41;8.50;99.90
17170;DHT22;8700;48.222;16.342;2022-11-15T04:17:02;8.40;99.90
17170;DHT22;8700;48.222;16.342;2022-11-15T04:20:25;8.60;99.90
17170;DHT22;8700;48.222;16.342;2022-11-15T04:24:04;8.70;99.90
17170;DHT22;8700;48.222;16.342;2022-11-15T04:27:34;8.70;99.90
17170;DHT22;8700;48.222;16.342;2022-11-15T04:30:56;8.70;99.90
17170;DHT22;8700;48.222;16.342;2022-11-15T04:34:18;8.70;99.90
17170;DHT22;8700;48.222;16.342;2022-11-15T04:37:39;8.70;99.90
17170;DHT22;8700;48.222;16.342;2022-11-15T04:41:00;8.60;99.90
17170;DHT22;8700;48.222;16.342;2022-11-15T04:44:21;8.40;99.90
17170;DHT22;8700;48.222;16.342;2022-11-15T04:47:45;8.40;99.90
17170;DHT22;8700;48.222;16.342;2022-11-15T04:51:06;8.50;99.90
17170;DHT22;8700;48.222;16.342;2022-11-15T04:54:27;8.40;99.90
17170;DHT22;8700;48.222;16.342;2022-11-15T04:57:57;8.60;99.90
17170;DHT22;8700;48.222;16.342;2022-11-15T05:01:19;8.50;99.90
17170;DHT22;8700;48.222;16.342;2022-11-15T05:04:42;8.60;99.90
17170;DHT22;8700;48.222;16.342;2022-11-15T05:08:02;8.70;99.90
17170;DHT22;8700;48.222;16.342;2022-11-15T05:11:24;8.80;99.90
17170;DHT22;8700;48.222;16.342;2022-11-15T05:14:45;8.80;99.90
17170;DHT22;8700;48.222;16.342;2022-11-15T05:18:06;8.90;99.90
17170;DHT22;8700;48.222;16.342;2022-11-15T05:21:29;8.80;99.90
17170;DHT22;8700;48.222;16.342;2022-11-15T05:24:50;8.70;99.90
17170;DHT22;8700;48.222;16.342;2022-11-15T05:28:11;8.80;99.90
17170;DHT22;8700;48.222;16.342;2022-11-15T05:31:32;8.70;99.90
17170;DHT22;8700;48.222;16.342;2022-11-15T05:34:54;8.70;99.90
17170;DHT22;8700;48.222;16.342;2022-11-15T05:38:17;8.70;99.90
17170;DHT22;8700;48.222;16.342;2022-11-15T05:41:41;8.90;99.90
17170;DHT22;8700;48.222;16.342;2022-11-15T05:45:07;8.80;99.90
17170;DHT22;8700;48.222;16.342;2022-11-15T05:48:29;9.00;99.90
17170;DHT22;8700;48.222;16.342;2022-11-15T05:51:51;8.90;99.90
17170;DHT22;8700;48.222;16.342;2022-11-15T05:55:15;8.90;99.90
17170;DHT22;8700;48.222;16.342;2022-11-15T05:58:37;9.10;99.90
17170;DHT22;8700;48.222;16.342;2022-11-15T06:01:59;8.80;99.90
17170;DHT22;8700;48.222;16.342;2022-11-15T06:05:20;8.70;99.90
17170;DHT22;8700;48.222;16.342;2022-11-15T06:08:41;8.70;99.90
17170;DHT22;8700;48.222;16.342;2022-11-15T06:12:04;8.90;99.90
17170;DHT22;8700;48.222;16.342;2022-11-15T06:15:25;8.80;99.90
17170;DHT22;8700;48.222;16.342;2022-11-15T06:18:47;8.70;99.90
17170;DHT22;8700;48.222;16.342;2022-11-15T06:22:08;8.60;99.90
17170;DHT22;8700;48.222;16.342;2022-11-15T06:25:30;8.70;99.90
17170;DHT22;8700;48.222;16.342;2022-11-15T06:28:52;8.90;99.90
17170;DHT22;8700;48.222;16.342;2022-11-15T06:32:14;9.20;99.90
17170;DHT22;8700;48.222;16.342;2022-11-15T06:35:36;9.40;99.90
17170;DHT22;8700;48.222;16.342;2022-11-15T06:38:57;9.30;99.90
17170;DHT22;8700;48.222;16.342;2022-11-15T06:42:19;9.30;99.90
17170;DHT22;8700;48.222;16.342;2022-11-15T06:45:41;9.30;99.90
17170;DHT22;8700;48.222;16.342;2022-11-15T06:49:03;9.30;99.90
17170;DHT22;8700;48.222;16.342;2022-11-15T06:52:24;9.10;99.90
17170;DHT22;8700;48.222;16.342;2022-11-15T06:55:45;9.10;99.90
17170;DHT22;8700;48.222;16.342;2022-11-15T06:59:07;9.10;99.90
17170;DHT22;8700;48.222;16.342;2022-11-15T07:02:29;9.20;99.90
17170;DHT22;8700;48.222;16.342;2022-11-15T07:05:52;9.20;99.90
17170;DHT22;8700;48.222;16.342;2022-11-15T07:09:14;9.00;99.90
17170;DHT22;8700;48.222;16.342;2022-11-15T07:12:35;9.00;99.90
17170;DHT22;8700;48.222;16.342;2022-11-15T07:15:56;9.20;99.90
17170;DHT22;8700;48.222;16.342;2022-11-15T07:19:19;9.20;99.90
17170;DHT22;8700;48.222;16.342;2022-11-15T07:22:41;9.40;99.90
17170;DHT22;8700;48.222;16.342;2022-11-15T07:26:02;9.30;99.90
17170;DHT22;8700;48.222;16.342;2022-11-15T07:29:23;9.20;99.90
17170;DHT22;8700;48.222;16.342;2022-11-15T07:32:44;9.20;99.90
17170;DHT22;8700;48.222;16.342;2022-11-15T07:36:08;9.00;99.90
17170;DHT22;8700;48.222;16.342;2022-11-15T07:39:30;9.30;99.90
17170;DHT22;8700;48.222;16.342;2022-11-15T07:42:51;9.20;99.90
17170;DHT22;8700;48.222;16.342;2022-11-15T07:46:17;9.10;99.90
17170;DHT22;8700;48.222;16.342;2022-11-15T07:49:38;8.90;99.90
17170;DHT22;8700;48.222;16.342;2022-11-15T07:53:01;9.00;99.90
17170;DHT22;8700;48.222;16.342;2022-11-15T07:56:23;8.90;99.90
17170;DHT22;8700;48.222;16.342;2022-11-15T07:59:44;8.80;99.90
17170;DHT22;8700;48.222;16.342;2022-11-15T08:03:06;9.10;99.90
17170;DHT22;8700;48.222;16.342;2022-11-15T08:06:28;9.00;99.90
17170;DHT22;8700;48.222;16.342;2022-11-15T08:09:51;8.90;99.90
17170;DHT22;8700;48.222;16.342;2022-11-15T08:13:13;8.90;99.90
17170;DHT22;8700;48.222;16.342;2022-11-15T08:16:34;9.10;99.90
17170;DHT22;8700;48.222;16.342;2022-11-15T08:19:55;9.20;99.90
17170;DHT22;8700;48.222;16.342;2022-11-15T08:23:16;9.00;99.90
17170;DHT22;8700;48.222;16.342;2022-11-15T08:26:39;9.00;99.90
17170;DHT22;8700;48.222;16.342;2022-11-15T08:30:00;9.10;99.90
17170;DHT22;8700;48.222;16.342;2022-11-15T08:33:21;8.90;99.90
17170;DHT22;8700;48.222;16.342;2022-11-15T08:36:43;8.70;99.90
17170;DHT22;8700;48.222;16.342;2022-11-15T08:40:05;8.80;99.90
17170;DHT22;8700;48.222;16.342;2022-11-15T08:43:29;9.00;99.90
17170;DHT22;8700;48.222;16.342;2022-11-15T08:46:50;9.20;99.90
17170;DHT22;8700;48.222;16.342;2022-11-15T08:50:12;9.10;99.90
17170;DHT22;8700;48.222;16.342;2022-11-15T08:53:34;8.90;99.90
17170;DHT22;8700;48.222;16.342;2022-11-15T08:56:55;8.90;99.90
17170;DHT22;8700;48.222;16.342;2022-11-15T09:00:18;9.10;99.90
17170;DHT22;8700;48.222;16.342;2022-11-15T09:03:41;9.40;99.90
17170;DHT22;8700;48.222;16.342;2022-11-15T09:07:02;9.20;99.90
17170;DHT22;8700;48.222;16.342;2022-11-15T09:10:23;9.10;99.90
17170;DHT22;8700;48.222;16.342;2022-11-15T09:13:45;9.00;99.90
17170;DHT22;8700;48.222;16.342;2022-11-15T09:17:08;9.00;99.90
17170;DHT22;8700;48.222;16.342;2022-11-15T09:20:29;9.10;99.90
17170;DHT22;8700;48.222;16.342;2022-11-15T09:23:51;9.00;99.90
17170;DHT22;8700;48.222;16.342;2022-11-15T09:27:12;9.10;99.90
17170;DHT22;8700;48.222;16.342;2022-11-15T09:30:34;9.30;99.90
17170;DHT22;8700;48.222;16.342;2022-11-15T09:33:57;9.20;99.90
17170;DHT22;8700;48.222;16.342;2022-11-15T09:37:18;9.00;99.90
17170;DHT22;8700;48.222;16.342;2022-11-15T09:40:39;8.90;99.90
17170;DHT22;8700;48.222;16.342;2022-11-15T09:44:11;9.10;99.90
17170;DHT22;8700;48.222;16.342;2022-11-15T09:47:56;9.30;99.90
17170;DHT22;8700;48.222;16.342;2022-11-15T09:51:27;9.30;99.90
17170;DHT22;8700;48.222;16.342;2022-11-15T09:54:51;9.70;99.90
17170;DHT22;8700;48.222;16.342;2022-11-15T09:58:20;9.50;99.90
17170;DHT22;8700;48.222;16.342;2022-11-15T10:01:49;9.30;99.90
17170;DHT22;8700;48.222;16.342;2022-11-15T10:05:18;9.00;99.90
17170;DHT22;8700;48.222;16.342;2022-11-15T10:08:53;9.10;99.90
17170;DHT22;8700;48.222;16.342;2022-11-15T10:12:15;9.30;99.90
17170;DHT22;8700;48.222;16.342;2022-11-15T10:15:37;9.10;99.90
17170;DHT22;8700;48.222;16.342;2022-11-15T10:19:03;9.10;99.90
17170;DHT22;8700;48.222;16.342;2022-11-15T10:22:28;9.30;99.90
17170;DHT22;8700;48.222;16.342;2022-11-15T10:25:52;9.40;99.90
17170;DHT22;8700;48.222;16.342;2022-11-15T10:29:18;9.70;99.90
17170;DHT22;8700;48.222;16.342;2022-11-15T10:32:43;9.80;99.90
17170;DHT22;8700;48.222;16.342;2022-11-15T10:36:19;9.50;99.90
17170;DHT22;8700;48.222;16.342;2022-11-15T10:39:41;9.30;99.90
17170;DHT22;8700;48.222;16.342;2022-11-15T10:43:15;9.30;99.90
17170;DHT22;8700;48.222;16.342;2022-11-15T10:46:38;9.50;99.90
17170;DHT22;8700;48.222;16.342;2022-11-15T10:50:05;9.30;99.90
17170;DHT22;8700;48.222;16.342;2022-11-15T10:53:30;9.40;99.90
17170;DHT22;8700;48.222;16.342;2022-11-15T10:57:00;9.30;99.90
17170;DHT22;8700;48.222;16.342;2022-11-15T11:00:33;9.10;99.90
17170;DHT22;8700;48.222;16.342;2022-11-15T11:03:59;9.40;99.90
17170;DHT22;8700;48.222;16.342;2022-11-15T11:07:23;9.20;99.90
17170;DHT22;8700;48.222;16.342;2022-11-15T11:10:52;9.30;99.90
17170;DHT22;8700;48.222;16.342;2022-11-15T11:14:19;9.40;99.90
17170;DHT22;8700;48.222;16.342;2022-11-15T11:17:52;9.50;99.90
17170;DHT22;8700;48.222;16.342;2022-11-15T11:21:21;9.50;99.90
17170;DHT22;8700;48.222;16.342;2022-11-15T11:24:53;9.40;99.90
17170;DHT22;8700;48.222;16.342;2022-11-15T11:28:34;9.20;99.90
17170;DHT22;8700;48.222;16.342;2022-11-15T11:32:05;9.50;99.90
17170;DHT22;8700;48.222;16.342;2022-11-15T11:35:37;9.50;99.90
17170;DHT22;8700;48.222;16.342;2022-11-15T11:39:14;9.80;99.90
17170;DHT22;8700;48.222;16.342;2022-11-15T11:42:45;10.00;99.90
17170;DHT22;8700;48.222;16.342;2022-11-15T11:46:19;10.00;99.90
17170;DHT22;8700;48.222;16.342;2022-11-15T11:49:49;10.20;99.90
17170;DHT22;8700;48.222;16.342;2022-11-15T11:53:17;9.90;99.90
17170;DHT22;8700;48.222;16.342;2022-11-15T11:56:45;10.20;99.90
17170;DHT22;8700;48.222;16.342;2022-11-15T12:00:16;10.20;99.90
17170;DHT22;8700;48.222;16.342;2022-11-15T12:03:40;10.30;99.90
17170;DHT22;8700;48.222;16.342;2022-11-15T12:07:13;10.30;99.90
17170;DHT22;8700;48.222;16.342;2022-11-15T12:10:37;9.90;99.90
17170;DHT22;8700;48.222;16.342;2022-11-15T12:14:02;9.70;99.90
17170;DHT22;8700;48.222;16.342;2022-11-15T12:17:28;10.00;99.90
17170;DHT22;8700;48.222;16.342;2022-11-15T12:20:54;10.10;99.90
17170;DHT22;8700;48.222;16.342;2022-11-15T12:24:19;10.10;99.90
17170;DHT22;8700;48.222;16.342;2022-11-15T12:27:50;10.00;99.90
17170;DHT22;8700;48.222;16.342;2022-11-15T12:31:16;9.70;99.90
17170;DHT22;8700;48.222;16.342;2022-11-15T12:34:43;9.90;99.90
17170;DHT22;8700;48.222;16.342;2022-11-15T12:38:08;10.00;99.90
17170;DHT22;8700;48.222;16.342;2022-11-15T12:41:33;10.10;99.90
17170;DHT22;8700;48.222;16.342;2022-11-15T12:44:59;10.30;99.90
17170;DHT22;8700;48.222;16.342;2022-11-15T12:52:19;10.20;99.90
17170;DHT22;8700;48.222;16.342;2022-11-15T12:55:42;10.50;99.90
17170;DHT22;8700;48.222;16.342;2022-11-15T12:59:06;10.60;99.90
17170;DHT22;8700;48.222;16.342;2022-11-15T13:02:31;10.50;99.90
17170;DHT22;8700;48.222;16.342;2022-11-15T13:06:08;10.60;99.90
17170;DHT22;8700;48.222;16.342;2022-11-15T13:09:56;10.60;99.90
17170;DHT22;8700;48.222;16.342;2022-11-15T13:13:42;10.60;99.90
17170;DHT22;8700;48.222;16.342;2022-11-15T13:17:26;10.50;99.90
17170;DHT22;8700;48.222;16.342;2022-11-15T13:20:50;10.40;99.90
17170;DHT22;8700;48.222;16.342;2022-11-15T13:24:14;10.40;99.90
17170;DHT22;8700;48.222;16.342;2022-11-15T13:27:36;10.30;99.90
17170;DHT22;8700;48.222;16.342;2022-11-15T13:30:59;10.30;99.90
17170;DHT22;8700;48.222;16.342;2022-11-15T13:34:28;10.30;99.90
17170;DHT22;8700;48.222;16.342;2022-11-15T13:37:55;10.40;99.90
17170;DHT22;8700;48.222;16.342;2022-11-15T13:41:20;10.10;99.90
17170;DHT22;8700;48.222;16.342;2022-11-15T13:44:55;10.20;99.90
17170;DHT22;8700;48.222;16.342;2022-11-15T13:48:16;9.90;99.90
17170;DHT22;8700;48.222;16.342;2022-11-15T13:51:39;10.00;99.90
17170;DHT22;8700;48.222;16.342;2022-11-15T13:55:05;10.00;99.90
17170;DHT22;8700;48.222;16.342;2022-11-15T13:58:30;10.00;99.90
17170;DHT22;8700;48.222;16.342;2022-11-15T14:01:53;10.10;99.90
17170;DHT22;8700;48.222;16.342;2022-11-15T14:05:17;10.10;99.90
17170;DHT22;8700;48.222;16.342;2022-11-15T14:08:39;10.00;99.90
17170;DHT22;8700;48.222;16.342;2022-11-15T14:12:21;10.20;99.90
17170;DHT22;8700;48.222;16.342;2022-11-15T14:15:43;10.30;99.90
17170;DHT22;8700;48.222;16.342;2022-11-15T14:19:06;10.30;99.90
17170;DHT22;8700;48.222;16.342;2022-11-15T14:22:30;10.20;99.90
17170;DHT22;8700;48.222;16.342;2022-11-15T14:25:53;10.40;99.90
17170;DHT22;8700;48.222;16.342;2022-11-15T14:29:25;10.20;99.90
17170;DHT22;8700;48.222;16.342;2022-11-15T14:32:49;10.20;99.90
17170;DHT22;8700;48.222;16.342;2022-11-15T14:36:12;10.00;99.90
17170;DHT22;8700;48.222;16.342;2022-11-15T14:39:34;10.10;99.90
17170;DHT22;8700;48.222;16.342;2022-11-15T14:42:55;10.10;99.90
17170;DHT22;8700;48.222;16.342;2022-11-15T14:46:18;10.10;99.90
17170;DHT22;8700;48.222;16.342;2022-11-15T14:49:40;10.20;99.90
17170;DHT22;8700;48.222;16.342;2022-11-15T14:53:02;10.30;99.90
17170;DHT22;8700;48.222;16.342;2022-11-15T14:56:23;10.40;99.90
17170;DHT22;8700;48.222;16.342;2022-11-15T14:59:44;10.40;99.90
17170;DHT22;8700;48.222;16.342;2022-11-15T15:03:07;10.40;99.90
17170;DHT22;8700;48.222;16.342;2022-11-15T15:06:29;10.40;99.90
17170;DHT22;8700;48.222;16.342;2022-11-15T15:09:50;10.60;99.90
17170;DHT22;8700;48.222;16.342;2022-11-15T15:13:17;10.70;99.90
17170;DHT22;8700;48.222;16.342;2022-11-15T15:16:38;10.70;99.90
17170;DHT22;8700;48.222;16.342;2022-11-15T15:20:01;10.60;99.90
17170;DHT22;8700;48.222;16.342;2022-11-15T15:23:22;10.60;99.90
17170;DHT22;8700;48.222;16.342;2022-11-15T15:26:46;10.70;99.90
17170;DHT22;8700;48.222;16.342;2022-11-15T15:30:08;10.50;99.90
17170;DHT22;8700;48.222;16.342;2022-11-15T15:33:29;10.50;99.90
17170;DHT22;8700;48.222;16.342;2022-11-15T15:37:06;10.20;99.90
17170;DHT22;8700;48.222;16.342;2022-11-15T15:40:29;10.40;99.90
17170;DHT22;8700;48.222;16.342;2022-11-15T15:43:51;10.50;99.90
17170;DHT22;8700;48.222;16.342;2022-11-15T15:47:14;10.30;99.90
17170;DHT22;8700;48.222;16.342;2022-11-15T15:50:36;10.40;99.90
17170;DHT22;8700;48.222;16.342;2022-11-15T15:53:59;10.50;99.90
17170;DHT22;8700;48.222;16.342;2022-11-15T15:57:20;10.30;99.90
17170;DHT22;8700;48.222;16.342;2022-11-15T16:00:42;10.20;99.90
17170;DHT22;8700;48.222;16.342;2022-11-15T16:04:03;10.20;99.90
17170;DHT22;8700;48.222;16.342;2022-11-15T16:07:24;10.30;99.90
17170;DHT22;8700;48.222;16.342;2022-11-15T16:10:47;10.40;99.90
17170;DHT22;8700;48.222;16.342;2022-11-15T16:14:08;10.40;99.90
17170;DHT22;8700;48.222;16.342;2022-11-15T16:17:32;10.40;99.90
17170;DHT22;8700;48.222;16.342;2022-11-15T16:20:54;10.30;99.90
17170;DHT22;8700;48.222;16.342;2022-11-15T16:24:16;10.30;99.90
17170;DHT22;8700;48.222;16.342;2022-11-15T16:27:39;10.40;99.90
17170;DHT22;8700;48.222;16.342;2022-11-15T16:31:09;10.60;99.90
17170;DHT22;8700;48.222;16.342;2022-11-15T16:34:30;10.60;99.90
17170;DHT22;8700;48.222;16.342;2022-11-15T16:37:52;10.60;99.90
17170;DHT22;8700;48.222;16.342;2022-11-15T16:41:14;10.70;99.90
17170;DHT22;8700;48.222;16.342;2022-11-15T16:44:39;10.80;99.90
17170;DHT22;8700;48.222;16.342;2022-11-15T16:48:00;10.70;99.90
17170;DHT22;8700;48.222;16.342;2022-11-15T16:51:22;10.40;99.90
17170;DHT22;8700;48.222;16.342;2022-11-15T16:54:44;10.20;99.90
17170;DHT22;8700;48.222;16.342;2022-11-15T16:58:05;10.20;99.90
17170;DHT22;8700;48.222;16.342;2022-11-15T17:01:29;10.30;99.90
17170;DHT22;8700;48.222;16.342;2022-11-15T17:04:51;10.40;99.90
17170;DHT22;8700;48.222;16.342;2022-11-15T17:08:12;10.40;99.90
17170;DHT22;8700;48.222;16.342;2022-11-15T17:11:33;10.30;99.90
17170;DHT22;8700;48.222;16.342;2022-11-15T17:14:55;10.40;99.90
17170;DHT22;8700;48.222;16.342;2022-11-15T17:18:17;10.40;99.90
17170;DHT22;8700;48.222;16.342;2022-11-15T17:21:40;10.30;99.90
17170;DHT22;8700;48.222;16.342;2022-11-15T17:25:02;10.50;99.90
17170;DHT22;8700;48.222;16.342;2022-11-15T17:28:23;10.50;99.90
17170;DHT22;8700;48.222;16.342;2022-11-15T17:31:44;10.20;99.90
17170;DHT22;8700;48.222;16.342;2022-11-15T17:35:08;10.40;99.90
17170;DHT22;8700;48.222;16.342;2022-11-15T17:38:30;10.50;99.90
17170;DHT22;8700;48.222;16.342;2022-11-15T17:41:52;10.70;99.90
17170;DHT22;8700;48.222;16.342;2022-11-15T17:45:13;10.80;99.90
17170;DHT22;8700;48.222;16.342;2022-11-15T17:48:35;10.80;99.90
17170;DHT22;8700;48.222;16.342;2022-11-15T17:51:57;10.80;99.90
17170;DHT22;8700;48.222;16.342;2022-11-15T17:55:19;10.90;99.90
17170;DHT22;8700;48.222;16.342;2022-11-15T17:58:40;10.70;99.90
17170;DHT22;8700;48.222;16.342;2022-11-15T18:02:02;10.80;99.90
17170;DHT22;8700;48.222;16.342;2022-11-15T18:05:24;10.60;99.90
17170;DHT22;8700;48.222;16.342;2022-11-15T18:08:48;10.60;99.90
17170;DHT22;8700;48.222;16.342;2022-11-15T18:12:10;10.70;99.90
17170;DHT22;8700;48.222;16.342;2022-11-15T18:15:31;10.90;99.90
17170;DHT22;8700;48.222;16.342;2022-11-15T18:18:53;11.10;99.90
17170;DHT22;8700;48.222;16.342;2022-11-15T18:22:15;10.60;99.90
17170;DHT22;8700;48.222;16.342;2022-11-15T18:25:38;10.50;99.90
17170;DHT22;8700;48.222;16.342;2022-11-15T18:29:03;10.30;99.90
17170;DHT22;8700;48.222;16.342;2022-11-15T18:32:24;10.30;99.90
17170;DHT22;8700;48.222;16.342;2022-11-15T18:35:46;10.30;99.90
17170;DHT22;8700;48.222;16.342;2022-11-15T18:39:09;10.40;99.90
17170;DHT22;8700;48.222;16.342;2022-11-15T18:42:37;10.60;99.90
17170;DHT22;8700;48.222;16.342;2022-11-15T18:46:01;10.50;99.90
17170;DHT22;8700;48.222;16.342;2022-11-15T18:49:23;10.30;99.90
17170;DHT22;8700;48.222;16.342;2022-11-15T18:52:49;10.10;99.90
17170;DHT22;8700;48.222;16.342;2022-11-15T18:56:15;10.30;99.90
17170;DHT22;8700;48.222;16.342;2022-11-15T18:59:38;10.30;99.90
17170;DHT22;8700;48.222;16.342;2022-11-15T19:03:00;10.30;99.90
17170;DHT22;8700;48.222;16.342;2022-11-15T19:06:23;10.30;99.90
17170;DHT22;8700;48.222;16.342;2022-11-15T19:09:47;10.10;99.90
17170;DHT22;8700;48.222;16.342;2022-11-15T19:13:09;10.30;99.90
17170;DHT22;8700;48.222;16.342;2022-11-15T19:16:34;10.20;99.90
17170;DHT22;8700;48.222;16.342;2022-11-15T19:19:56;10.10;99.90
17170;DHT22;8700;48.222;16.342;2022-11-15T19:23:17;10.10;99.90
17170;DHT22;8700;48.222;16.342;2022-11-15T19:26:39;10.20;99.90
17170;DHT22;8700;48.222;16.342;2022-11-15T19:30:02;10.20;99.90
17170;DHT22;8700;48.222;16.342;2022-11-15T19:33:25;10.40;99.90
17170;DHT22;8700;48.222;16.342;2022-11-15T19:36:47;10.40;99.90
17170;DHT22;8700;48.222;16.342;2022-11-15T19:40:11;10.10;99.90
17170;DHT22;8700;48.222;16.342;2022-11-15T19:43:33;10.10;99.90
17170;DHT22;8700;48.222;16.342;2022-11-15T19:46:55;10.20;99.90
17170;DHT22;8700;48.222;16.342;2022-11-15T19:50:22;10.30;99.90
17170;DHT22;8700;48.222;16.342;2022-11-15T19:53:43;10.30;99.90
17170;DHT22;8700;48.222;16.342;2022-11-15T19:57:05;10.50;99.90
17170;DHT22;8700;48.222;16.342;2022-11-15T20:00:26;10.40;99.90
17170;DHT22;8700;48.222;16.342;2022-11-15T20:03:49;10.50;99.90
17170;DHT22;8700;48.222;16.342;2022-11-15T20:07:14;10.60;99.90
17170;DHT22;8700;48.222;16.342;2022-11-15T20:10:35;10.50;99.90
17170;DHT22;8700;48.222;16.342;2022-11-15T20:13:57;10.60;99.90
17170;DHT22;8700;48.222;16.342;2022-11-15T20:17:20;10.70;99.90
17170;DHT22;8700;48.222;16.342;2022-11-15T20:20:43;10.50;99.90
17170;DHT22;8700;48.222;16.342;2022-11-15T20:24:07;10.50;99.90
17170;DHT22;8700;48.222;16.342;2022-11-15T20:27:29;10.50;99.90
17170;DHT22;8700;48.222;16.342;2022-11-15T20:30:51;10.40;99.90
17170;DHT22;8700;48.222;16.342;2022-11-15T20:34:13;10.50;99.90
17170;DHT22;8700;48.222;16.342;2022-11-15T20:37:35;10.40;99.90
17170;DHT22;8700;48.222;16.342;2022-11-15T20:40:57;10.30;99.90
17170;DHT22;8700;48.222;16.342;2022-11-15T20:44:19;10.40;99.90
17170;DHT22;8700;48.222;16.342;2022-11-15T20:47:41;10.40;99.90
17170;DHT22;8700;48.222;16.342;2022-11-15T20:51:10;10.30;99.90
17170;DHT22;8700;48.222;16.342;2022-11-15T20:54:36;10.20;99.90
17170;DHT22;8700;48.222;16.342;2022-11-15T20:57:59;10.30;99.90
17170;DHT22;8700;48.222;16.342;2022-11-15T21:01:23;10.60;99.90
17170;DHT22;8700;48.222;16.342;2022-11-15T21:04:45;10.60;99.90
17170;DHT22;8700;48.222;16.342;2022-11-15T21:08:06;10.30;99.90
17170;DHT22;8700;48.222;16.342;2022-11-15T21:11:28;10.30;99.90
17170;DHT22;8700;48.222;16.342;2022-11-15T21:15:08;10.40;99.90
17170;DHT22;8700;48.222;16.342;2022-11-15T21:18:30;10.50;99.90
17170;DHT22;8700;48.222;16.342;2022-11-15T21:21:52;10.60;99.90
17170;DHT22;8700;48.222;16.342;2022-11-15T21:25:14;10.70;99.90
17170;DHT22;8700;48.222;16.342;2022-11-15T21:28:38;10.80;99.90
17170;DHT22;8700;48.222;16.342;2022-11-15T21:32:01;10.60;99.90
17170;DHT22;8700;48.222;16.342;2022-11-15T21:35:22;10.30;99.90
17170;DHT22;8700;48.222;16.342;2022-11-15T21:38:44;10.40;99.90
17170;DHT22;8700;48.222;16.342;2022-11-15T21:42:05;10.30;99.90
17170;DHT22;8700;48.222;16.342;2022-11-15T21:45:27;10.40;99.90
17170;DHT22;8700;48.222;16.342;2022-11-15T21:48:50;10.30;99.90